Etusivu
METAR-TAF:

METAR-TAF

Lentoasemat :

Granada, Espanja

Leveyspiiri: 37-11N, Pituuspiiri: 003-47W, korkeus merenpinnasta: 567 m

Tämänhetkinen sää

Tämä raportti tehtiin 33 minuuttia sitten, kello 10.30 UTC
Tuuli 2 kn eri suunnista
Lämpötila 14°C
Kosteus 58%
Ilmanpaine 1019 hPa
Näkyvyys 10 km tai enemmän
Muutamia pilviä 5000 ft:n korkeudessa

METAR: LEGR 291030Z VRB02KT 9999 FEW050 14/06 Q1019

Aika: 13:03 (11:03 UTC)

Sääennuste

Tämä raportti tehtiin 3 tuntia ja 3 minuuttia sitten, kello 08.00 UTC
Ennuste voimassa 29. päivästä klo 09 UTC - 30. päivään klo 09 UTC
Tuuli 2 kn eri suunnista
Näkyvyys 10 km tai enemmän
Muutamia pilviä 4000 ft:n korkeudessa
Tulossa
29. päivästä klo 14 UTC - 29. päivään klo 16 UTC
Tuuli 10 kn lännestä/luoteesta
Tulossa
30. päivästä klo 02 UTC - 30. päivään klo 04 UTC
Tuuli 2 kn eri suunnista

TAF: LEGR 290800Z 2909/3009 VRB02KT 9999 FEW040 TX18/2915Z TN06/3007Z BECMG 2914/2916 29010KT BECMG 3002/3004 VRB02KT

Säähavainnot ja -ennusteet yli 4000 lentoasemalta (METAR- ja TAF-raportit).

Käytössä olevat sääasemat on merkitty karttaan keltaisilla ja punaisilla pisteillä.

Aseta hiiri pisteen päälle nähdäksesi sääaseman nimen.

Klikkaa sitten nähdäksesi säähavainnot ja -ennusteet.

Kartan vaihtaminen: klikkaa mustalla rastilla varustettuja vihreitä pisteitä, niin voit zoomata sisään; viivalla varustettua vihreää pistettä, niin voit zoomata ulos tai vihreitä nuolia, niin pääset viereisille kartoille.


METAR-TAF: